createdAt,value
2018-04-12T00:00:29.025Z,7.50
2018-04-12T00:01:03.536Z,7.05
2018-04-12T00:01:38.042Z,7.75
2018-04-12T00:02:12.523Z,7.40
2018-04-12T00:02:46.263Z,8.02
2018-04-12T00:03:20.076Z,7.37
2018-04-12T00:03:53.799Z,7.80
2018-04-12T00:04:27.520Z,7.80
2018-04-12T00:05:02.066Z,6.55
2018-04-12T00:05:35.806Z,8.80
2018-04-12T00:06:09.520Z,7.12
2018-04-12T00:06:43.252Z,7.30
2018-04-12T00:07:16.978Z,8.52
2018-04-12T00:07:50.714Z,7.12
2018-04-12T00:08:24.434Z,8.18
2018-04-12T00:08:58.160Z,7.28
2018-04-12T00:09:32.642Z,7.62
2018-04-12T00:10:06.392Z,7.60
2018-04-12T00:10:40.270Z,7.68
2018-04-12T00:11:14.749Z,7.40
2018-04-12T00:11:48.476Z,7.43
2018-04-12T00:12:23.152Z,7.93
2018-04-12T00:12:57.650Z,7.20
2018-04-12T00:13:31.384Z,7.40
2018-04-12T00:14:05.123Z,7.15
2018-04-12T00:14:38.848Z,7.07
2018-04-12T00:15:13.610Z,7.45
2018-04-12T00:15:47.339Z,7.10
2018-04-12T00:16:21.830Z,7.70
2018-04-12T00:16:55.561Z,7.07
2018-04-12T00:17:30.067Z,7.43
2018-04-12T00:18:04.553Z,7.00
2018-04-12T00:18:38.302Z,7.65
2018-04-12T00:19:12.019Z,7.50
2018-04-12T00:19:45.850Z,8.05
2018-04-12T00:20:20.411Z,7.85
2018-04-12T00:20:54.140Z,8.10
2018-04-12T00:21:27.856Z,7.87
2018-04-12T00:22:01.637Z,7.60
2018-04-12T00:22:36.142Z,7.72
2018-04-12T00:23:10.627Z,7.43
2018-04-12T00:23:44.342Z,8.18
2018-04-12T00:24:18.915Z,6.57
2018-04-12T00:24:52.641Z,7.57
2018-04-12T00:25:26.933Z,7.40
2018-04-12T00:26:00.651Z,8.65
2018-04-12T00:26:34.381Z,7.72
2018-04-12T00:27:08.104Z,8.68
2018-04-12T00:27:41.607Z,7.25
2018-04-12T00:28:15.895Z,8.13
2018-04-12T00:28:50.382Z,7.18
2018-04-12T00:29:24.211Z,7.80
2018-04-12T00:29:58.748Z,7.97
2018-04-12T00:30:32.267Z,8.48
2018-04-12T00:31:06.000Z,8.27
2018-04-12T00:31:40.545Z,7.35
2018-04-12T00:32:14.350Z,8.90
2018-04-12T00:32:48.078Z,8.13
2018-04-12T00:33:21.808Z,7.40
2018-04-12T00:33:55.597Z,7.70
2018-04-12T00:34:29.320Z,7.28
2018-04-12T00:35:03.075Z,7.72
2018-04-12T00:35:36.834Z,7.50
2018-04-12T00:36:10.620Z,8.43
2018-04-12T00:36:44.358Z,7.93
2018-04-12T00:37:18.083Z,7.87
2018-04-12T00:37:51.817Z,8.15
2018-04-12T00:38:26.305Z,8.70
2018-04-12T00:39:00.253Z,8.98
2018-04-12T00:39:33.972Z,8.00
2018-04-12T00:40:07.696Z,8.57
2018-04-12T00:40:42.232Z,8.93
2018-04-12T00:41:15.960Z,8.02
2018-04-12T00:41:49.691Z,8.50
2018-04-12T00:42:24.189Z,8.85
2018-04-12T00:42:57.910Z,8.10
2018-04-12T00:43:31.633Z,8.38
2018-04-12T00:44:05.372Z,8.18
2018-04-12T00:44:39.883Z,7.90
2018-04-12T00:45:14.365Z,8.60
2018-04-12T00:45:48.136Z,8.90
2018-04-12T00:46:21.867Z,8.00
2018-04-12T00:46:56.373Z,8.80
2018-04-12T00:47:30.090Z,9.18
2018-04-12T00:48:03.481Z,8.57
2018-04-12T00:48:37.197Z,8.90
2018-04-12T00:49:10.932Z,8.15
2018-04-12T00:49:44.648Z,8.98
2018-04-12T00:50:18.415Z,8.50
2018-04-12T00:50:52.939Z,9.50
2018-04-12T00:51:26.669Z,8.68
2018-04-12T00:52:00.426Z,8.40
2018-04-12T00:52:34.159Z,7.30
2018-04-12T00:53:07.877Z,8.05
2018-04-12T00:53:52.539Z,8.65
2018-04-12T00:54:26.815Z,8.77
2018-04-12T00:55:00.577Z,8.20
2018-04-12T00:55:34.324Z,9.27
2018-04-12T00:56:08.656Z,8.45
2018-04-12T00:56:42.395Z,8.88
2018-04-12T00:57:16.135Z,9.07
2018-04-12T00:57:49.862Z,9.73
2018-04-12T00:58:23.654Z,9.00
2018-04-12T00:58:57.390Z,8.30
2018-04-12T00:59:31.881Z,8.70
2018-04-12T01:00:06.040Z,8.85
2018-04-12T01:00:39.856Z,8.82
2018-04-12T01:01:13.695Z,9.98
2018-04-12T01:01:47.422Z,9.30
2018-04-12T01:02:21.162Z,9.40
2018-04-12T01:02:55.663Z,8.98
2018-04-12T01:03:29.449Z,9.00
2018-04-12T01:04:03.195Z,9.45
2018-04-12T01:04:36.934Z,9.88
2018-04-12T01:05:10.653Z,9.80
2018-04-12T01:05:44.370Z,9.20
2018-04-12T01:06:18.123Z,9.60
2018-04-12T01:06:52.649Z,10.07
2018-04-12T01:07:26.399Z,10.00
2018-04-12T01:08:00.139Z,9.38
2018-04-12T01:08:33.886Z,9.13
2018-04-12T01:09:07.286Z,9.45
2018-04-12T01:09:41.770Z,9.27
2018-04-12T01:10:15.506Z,9.18
2018-04-12T01:10:49.230Z,9.68
2018-04-12T01:11:22.960Z,9.32
2018-04-12T01:11:57.450Z,9.88
2018-04-12T01:12:31.186Z,10.23
2018-04-12T01:13:04.941Z,9.60
2018-04-12T01:13:38.664Z,9.98
2018-04-12T01:14:12.153Z,9.23
2018-04-12T01:14:45.891Z,10.15
2018-04-12T01:15:19.632Z,10.35
2018-04-12T01:15:53.389Z,9.85
2018-04-12T01:16:27.113Z,9.02
2018-04-12T01:17:00.870Z,9.80
2018-04-12T01:17:34.596Z,9.88
2018-04-12T01:18:08.327Z,8.80
2018-04-12T01:18:41.814Z,9.85
2018-04-12T01:19:15.314Z,9.77
2018-04-12T01:19:49.047Z,10.05
2018-04-12T01:20:22.568Z,10.32
2018-04-12T01:20:56.329Z,10.32
2018-04-12T01:21:30.172Z,9.75
2018-04-12T01:22:03.910Z,10.38
2018-04-12T01:22:37.641Z,9.52
2018-04-12T01:23:11.393Z,10.85
2018-04-12T01:23:45.133Z,10.43
2018-04-12T01:24:18.525Z,10.50
2018-04-12T01:24:52.257Z,11.00
2018-04-12T01:25:25.978Z,9.55
2018-04-12T01:25:59.741Z,11.00
2018-04-12T01:26:33.469Z,11.55
2018-04-12T01:27:07.193Z,10.88
2018-04-12T01:27:41.934Z,9.88
2018-04-12T01:28:15.697Z,11.12
2018-04-12T01:28:49.448Z,11.60
2018-04-12T01:29:23.193Z,10.85
2018-04-12T01:29:57.692Z,11.77
2018-04-12T01:30:32.197Z,11.05
2018-04-12T01:31:06.144Z,11.30
2018-04-12T01:31:39.944Z,11.27
2018-04-12T01:32:13.465Z,11.32
2018-04-12T01:32:58.320Z,10.60
2018-04-12T01:33:32.080Z,10.57
2018-04-12T01:34:05.802Z,11.20
2018-04-12T01:34:39.530Z,11.40
2018-04-12T01:35:13.039Z,11.68
2018-04-12T01:35:46.536Z,11.15
2018-04-12T01:36:20.289Z,11.70
2018-04-12T01:36:54.028Z,11.35
2018-04-12T01:37:27.761Z,11.30
2018-04-12T01:38:01.496Z,12.05
2018-04-12T01:38:35.242Z,11.70
2018-04-12T01:39:09.748Z,11.80
2018-04-12T01:39:44.243Z,11.15
2018-04-12T01:40:17.961Z,11.40
2018-04-12T01:40:51.738Z,12.07
2018-04-12T01:41:26.255Z,12.45
2018-04-12T01:42:00.765Z,11.48
2018-04-12T01:42:35.281Z,11.50
2018-04-12T01:43:09.774Z,12.48
2018-04-12T01:43:45.001Z,11.27
2018-04-12T01:44:18.493Z,12.00
2018-04-12T01:44:52.767Z,12.20
2018-04-12T01:45:26.495Z,12.18
2018-04-12T01:45:59.989Z,11.65
2018-04-12T01:46:33.787Z,12.05
2018-04-12T01:47:07.530Z,12.82
2018-04-12T01:47:41.819Z,12.32
2018-04-12T01:48:15.550Z,12.30
2018-04-12T01:48:50.059Z,12.57
2018-04-12T01:49:24.536Z,12.50
2018-04-12T01:49:58.269Z,14.50
2018-04-12T01:50:32.765Z,13.48
2018-04-12T01:51:07.254Z,13.52
2018-04-12T01:51:41.268Z,11.98
2018-04-12T01:52:15.529Z,13.35
2018-04-12T01:52:49.033Z,12.88
2018-04-12T01:53:22.774Z,13.38
2018-04-12T01:53:56.293Z,13.68
2018-04-12T01:54:29.788Z,12.80
2018-04-12T01:55:02.943Z,12.37
2018-04-12T01:55:36.666Z,14.57
2018-04-12T01:56:10.380Z,13.35
2018-04-12T01:56:44.889Z,13.57
2018-04-12T01:57:19.376Z,14.50
2018-04-12T01:57:53.107Z,13.25
2018-04-12T01:58:26.842Z,13.40
2018-04-12T01:59:00.598Z,13.38
2018-04-12T01:59:34.117Z,12.80
2018-04-12T02:00:07.517Z,13.57
2018-04-12T02:00:40.941Z,13.13
2018-04-12T02:01:14.671Z,13.62
2018-04-12T02:01:48.483Z,13.70
2018-04-12T02:02:22.218Z,14.00
2018-04-12T02:02:55.953Z,14.13
2018-04-12T02:03:29.680Z,13.98
2018-04-12T02:04:04.173Z,14.45
2018-04-12T02:04:37.894Z,14.07
2018-04-12T02:05:11.619Z,14.87
2018-04-12T02:05:45.332Z,15.13
2018-04-12T02:06:19.068Z,15.20
2018-04-12T02:06:52.817Z,15.10
2018-04-12T02:07:26.547Z,15.18
2018-04-12T02:08:00.307Z,14.95
2018-04-12T02:08:34.816Z,16.33
2018-04-12T02:09:08.551Z,14.95
2018-04-12T02:09:42.271Z,14.82
2018-04-12T02:10:15.765Z,15.40
2018-04-12T02:10:49.280Z,15.23
2018-04-12T02:11:22.789Z,15.27
2018-04-12T02:11:56.527Z,16.27
2018-04-12T02:12:30.275Z,16.35
2018-04-12T02:13:03.792Z,15.60
2018-04-12T02:13:37.304Z,16.33
2018-04-12T02:14:10.793Z,16.67
2018-04-12T02:14:44.526Z,15.88
2018-04-12T02:15:18.273Z,15.80
2018-04-12T02:15:51.784Z,16.15
2018-04-12T02:16:26.259Z,15.32
2018-04-12T02:16:59.998Z,16.00
2018-04-12T02:17:33.748Z,17.20
2018-04-12T02:18:07.478Z,16.40
2018-04-12T02:18:40.965Z,15.57
2018-04-12T02:19:14.684Z,16.20
2018-04-12T02:19:48.406Z,16.02
2018-04-12T02:20:22.122Z,16.92
2018-04-12T02:20:56.606Z,17.90
2018-04-12T02:21:30.320Z,16.20
2018-04-12T02:22:04.836Z,16.15
2018-04-12T02:22:39.329Z,16.60
2018-04-12T02:23:13.817Z,17.65
2018-04-12T02:23:47.566Z,16.37
2018-04-12T02:24:21.293Z,16.52
2018-04-12T02:24:55.030Z,16.92
2018-04-12T02:25:28.768Z,17.55
2018-04-12T02:26:02.518Z,17.45
2018-04-12T02:26:36.247Z,17.37
2018-04-12T02:27:09.992Z,16.73
2018-04-12T02:27:44.482Z,17.10
2018-04-12T02:28:18.977Z,17.67
2018-04-12T02:28:52.712Z,16.77
2018-04-12T02:29:27.392Z,17.92
2018-04-12T02:30:00.960Z,18.00
2018-04-12T02:30:34.680Z,16.80
2018-04-12T02:31:09.186Z,16.83
2018-04-12T02:31:43.688Z,18.12
2018-04-12T02:32:18.214Z,16.42
2018-04-12T02:32:52.724Z,18.55
2018-04-12T02:33:27.223Z,18.77
2018-04-12T02:34:01.722Z,18.02
2018-04-12T02:34:36.212Z,18.33
2018-04-12T02:35:09.936Z,18.55
2018-04-12T02:35:44.442Z,18.40
2018-04-12T02:36:18.930Z,17.80
2018-04-12T02:36:52.664Z,19.42
2018-04-12T02:37:26.435Z,19.65
2018-04-12T02:38:00.704Z,18.50
2018-04-12T02:38:34.470Z,19.30
2018-04-12T02:39:07.879Z,19.20
2018-04-12T02:39:41.624Z,18.83
2018-04-12T02:40:15.346Z,18.50
2018-04-12T02:40:49.082Z,18.60
2018-04-12T02:41:24.302Z,18.55
2018-04-12T02:41:58.036Z,20.37
2018-04-12T02:42:31.810Z,19.65
2018-04-12T02:43:04.896Z,18.85
2018-04-12T02:43:38.625Z,21.50
2018-04-12T02:44:12.342Z,19.75
2018-04-12T02:44:46.840Z,19.85
2018-04-12T02:45:21.550Z,20.30
2018-04-12T02:45:55.278Z,20.45
2018-04-12T02:46:29.016Z,20.55
2018-04-12T02:47:02.768Z,19.37
2018-04-12T02:47:36.529Z,21.58
2018-04-12T02:48:09.922Z,21.80
2018-04-12T02:48:44.418Z,21.27
2018-04-12T02:49:18.141Z,19.90
2018-04-12T02:49:51.878Z,19.30
2018-04-12T02:50:25.594Z,21.60
2018-04-12T02:51:00.096Z,21.35
2018-04-12T02:51:33.846Z,20.70
2018-04-12T02:52:07.580Z,20.90
2018-04-12T02:52:41.356Z,20.65
2018-04-12T02:53:15.082Z,21.55
2018-04-12T02:53:49.568Z,20.83
2018-04-12T02:54:23.307Z,21.30
2018-04-12T02:54:57.039Z,21.12
2018-04-12T02:55:30.774Z,21.12
2018-04-12T02:56:04.506Z,21.85
2018-04-12T02:56:38.240Z,21.42
2018-04-12T02:57:12.739Z,22.02
2018-04-12T02:57:46.484Z,22.27
2018-04-12T02:58:20.221Z,21.40
2018-04-12T02:58:53.948Z,21.80
2018-04-12T02:59:27.685Z,21.17
2018-04-12T03:00:01.443Z,21.80
2018-04-12T03:00:35.197Z,21.55
2018-04-12T03:01:09.483Z,21.80
2018-04-12T03:01:42.973Z,20.85
2018-04-12T03:02:17.478Z,20.80
2018-04-12T03:02:51.215Z,21.67
2018-04-12T03:03:24.710Z,22.08
2018-04-12T03:03:58.211Z,22.08
2018-04-12T03:04:31.950Z,20.85
2018-04-12T03:05:06.483Z,22.30
2018-04-12T03:05:40.213Z,21.85
2018-04-12T03:06:13.944Z,22.25
2018-04-12T03:06:48.456Z,21.73
2018-04-12T03:07:23.065Z,21.60
2018-04-12T03:07:57.571Z,24.05
2018-04-12T03:08:32.067Z,21.08
2018-04-12T03:09:05.907Z,21.95
2018-04-12T03:09:39.643Z,21.52
2018-04-12T03:10:13.379Z,22.85
2018-04-12T03:10:47.109Z,24.10
2018-04-12T03:11:20.870Z,22.17
2018-04-12T03:11:54.621Z,22.48
2018-04-12T03:12:28.352Z,23.73
2018-04-12T03:13:02.109Z,22.65
2018-04-12T03:13:36.617Z,24.10
2018-04-12T03:14:11.109Z,23.55
2018-04-12T03:14:44.837Z,23.77
2018-04-12T03:15:18.569Z,24.45
2018-04-12T03:15:52.309Z,24.70
2018-04-12T03:16:26.050Z,22.45
2018-04-12T03:16:59.784Z,24.67
2018-04-12T03:17:34.272Z,25.75
2018-04-12T03:18:08.026Z,23.80
2018-04-12T03:18:41.761Z,24.30
2018-04-12T03:19:15.159Z,24.58
2018-04-12T03:19:49.656Z,24.27
2018-04-12T03:20:23.368Z,25.20
2018-04-12T03:20:57.850Z,24.00
2018-04-12T03:21:31.577Z,25.40
2018-04-12T03:22:05.294Z,23.48
2018-04-12T03:22:38.690Z,24.80
2018-04-12T03:23:12.435Z,26.33
2018-04-12T03:23:46.933Z,25.05
2018-04-12T03:24:21.476Z,25.23
2018-04-12T03:24:55.209Z,24.40
2018-04-12T03:25:28.934Z,25.65
2018-04-12T03:26:03.409Z,25.83
2018-04-12T03:26:38.651Z,22.87
2018-04-12T03:27:12.367Z,24.55
2018-04-12T03:27:46.119Z,24.40
2018-04-12T03:28:19.905Z,26.05
2018-04-12T03:28:53.632Z,24.73
2018-04-12T03:29:28.136Z,27.02
2018-04-12T03:30:02.651Z,25.85
2018-04-12T03:30:36.379Z,25.58
2018-04-12T03:31:09.761Z,26.05
2018-04-12T03:31:43.161Z,26.10
2018-04-12T03:32:16.889Z,24.30
2018-04-12T03:32:51.429Z,26.10
2018-04-12T03:33:25.156Z,25.95
2018-04-12T03:33:58.876Z,26.23
2018-04-12T03:34:33.363Z,26.08
2018-04-12T03:35:07.087Z,25.85
2018-04-12T03:35:41.248Z,25.92
2018-04-12T03:36:14.966Z,25.67
2018-04-12T03:36:49.465Z,25.27
2018-04-12T03:37:23.962Z,27.45
2018-04-12T03:37:57.706Z,26.05
2018-04-12T03:38:31.413Z,26.15
2018-04-12T03:39:04.470Z,26.23
2018-04-12T03:39:38.184Z,26.65
2018-04-12T03:40:11.940Z,27.77
2018-04-12T03:40:45.660Z,26.42
2018-04-12T03:41:19.385Z,26.33
2018-04-12T03:41:53.100Z,25.45
2018-04-12T03:42:27.594Z,28.10
2018-04-12T03:43:01.344Z,28.00
2018-04-12T03:43:35.073Z,27.65
2018-04-12T03:44:09.800Z,27.55
2018-04-12T03:44:44.310Z,26.95
2018-04-12T03:45:18.816Z,27.23
2018-04-12T03:45:52.530Z,26.60
2018-04-12T03:46:26.250Z,26.15
2018-04-12T03:46:59.974Z,28.20
2018-04-12T03:47:33.714Z,27.02
2018-04-12T03:48:07.464Z,26.90
2018-04-12T03:48:41.375Z,30.27
2018-04-12T03:49:15.976Z,27.70
2018-04-12T03:49:49.898Z,28.02
2018-04-12T03:50:23.727Z,28.58
2018-04-12T03:50:57.590Z,29.73
2018-04-12T03:51:31.327Z,29.33
2018-04-12T03:52:05.058Z,29.75
2018-04-12T03:52:39.216Z,27.67
2018-04-12T03:53:12.968Z,29.67
2018-04-12T03:53:46.703Z,27.60
2018-04-12T03:54:20.442Z,28.62
2018-04-12T03:54:54.160Z,29.77
2018-04-12T03:55:27.883Z,30.00
2018-04-12T03:56:01.623Z,28.50
2018-04-12T03:56:35.350Z,29.20
2018-04-12T03:57:09.074Z,29.08
2018-04-12T03:57:43.559Z,28.95
2018-04-12T03:58:17.337Z,29.25
2018-04-12T03:58:51.071Z,28.60
2018-04-12T03:59:25.591Z,30.98
2018-04-12T03:59:59.264Z,29.73
2018-04-12T04:00:33.537Z,28.60
2018-04-12T04:01:07.264Z,29.15
2018-04-12T04:01:41.773Z,28.42
2018-04-12T04:02:16.058Z,28.62
2018-04-12T04:02:49.946Z,30.48
2018-04-12T04:03:23.706Z,27.83
2018-04-12T04:03:57.423Z,30.23
2018-04-12T04:04:31.156Z,29.48
2018-04-12T04:05:04.219Z,28.62
2018-04-12T04:05:38.708Z,29.92
2018-04-12T04:06:12.466Z,28.58
2018-04-12T04:06:46.194Z,29.75
2018-04-12T04:07:19.947Z,29.40
2018-04-12T04:07:53.856Z,29.77
2018-04-12T04:08:27.620Z,31.15
2018-04-12T04:09:01.358Z,30.35
2018-04-12T04:09:34.762Z,29.75
2018-04-12T04:10:09.258Z,31.08
2018-04-12T04:10:42.972Z,31.75
2018-04-12T04:11:16.699Z,29.83
2018-04-12T04:11:50.419Z,30.95
2018-04-12T04:12:23.940Z,30.20
2018-04-12T04:12:57.670Z,29.60
2018-04-12T04:13:31.427Z,28.87
2018-04-12T04:14:04.480Z,28.83
2018-04-12T04:14:42.270Z,29.20
2018-04-12T04:15:27.758Z,28.62
2018-04-12T04:16:12.770Z,28.20
2018-04-12T04:16:57.644Z,26.98
2018-04-12T04:17:43.316Z,28.15
2018-04-12T04:18:28.778Z,27.55
2018-04-12T04:19:14.195Z,28.58
2018-04-12T04:19:59.124Z,29.73
2018-04-12T04:20:44.089Z,26.67
2018-04-12T04:21:18.124Z,28.45
2018-04-12T04:21:51.852Z,29.10
2018-04-12T04:22:26.350Z,29.25
2018-04-12T04:23:00.844Z,29.77
2018-04-12T04:23:34.604Z,28.20
2018-04-12T04:24:09.430Z,30.15
2018-04-12T04:24:43.158Z,29.50
2018-04-12T04:25:17.675Z,29.33
2018-04-12T04:25:52.152Z,31.00
2018-04-12T04:26:25.879Z,28.15
2018-04-12T04:26:59.627Z,30.00
2018-04-12T04:27:33.358Z,29.52
2018-04-12T04:28:07.167Z,31.17
2018-04-12T04:28:41.022Z,29.58
2018-04-12T04:29:14.760Z,30.35
2018-04-12T04:29:48.483Z,29.05
2018-04-12T04:30:22.546Z,29.60
2018-04-12T04:30:56.270Z,29.98
2018-04-12T04:31:30.009Z,28.60
2018-04-12T04:32:03.751Z,30.83
2018-04-12T04:32:37.479Z,30.55
2018-04-12T04:33:11.984Z,29.25
2018-04-12T04:33:46.497Z,27.73
2018-04-12T04:34:20.990Z,29.90
2018-04-12T04:34:54.719Z,29.90
2018-04-12T04:35:28.451Z,29.27
2018-04-12T04:36:02.197Z,28.33
2018-04-12T04:36:35.933Z,29.30
2018-04-12T04:37:09.655Z,28.45
2018-04-12T04:37:43.389Z,29.55
2018-04-12T04:38:17.129Z,28.08
2018-04-12T04:38:50.894Z,29.40
2018-04-12T04:39:24.613Z,28.62
2018-04-12T04:39:58.337Z,28.10
2018-04-12T04:40:32.057Z,27.70
2018-04-12T04:41:07.474Z,27.10
2018-04-12T04:41:41.202Z,28.25
2018-04-12T04:42:14.970Z,27.50
2018-04-12T04:42:48.694Z,25.67
2018-04-12T04:43:22.481Z,27.37
2018-04-12T04:43:56.218Z,28.12
2018-04-12T04:44:29.731Z,26.33
2018-04-12T04:45:03.457Z,26.37
2018-04-12T04:45:37.197Z,28.58
2018-04-12T04:46:10.925Z,26.85
2018-04-12T04:46:44.685Z,27.27
2018-04-12T04:47:18.186Z,25.48
2018-04-12T04:47:51.699Z,26.50
2018-04-12T04:48:25.440Z,25.85
2018-04-12T04:48:59.191Z,25.30
2018-04-12T04:49:33.815Z,26.67
2018-04-12T04:50:08.313Z,25.35
2018-04-12T04:50:42.057Z,25.85
2018-04-12T04:51:15.786Z,24.30
2018-04-12T04:51:49.520Z,25.45
2018-04-12T04:52:23.283Z,25.62
2018-04-12T04:52:57.764Z,25.08
2018-04-12T04:53:31.496Z,24.80
2018-04-12T04:54:05.235Z,23.85
2018-04-12T04:54:38.619Z,25.10
2018-04-12T04:55:12.346Z,25.67
2018-04-12T04:55:46.833Z,25.15
2018-04-12T04:56:20.576Z,23.48
2018-04-12T04:56:54.091Z,21.90
2018-04-12T04:57:27.599Z,25.25
2018-04-12T04:58:01.103Z,22.00
2018-04-12T04:58:35.601Z,23.52
2018-04-12T04:59:09.346Z,22.27
2018-04-12T04:59:43.095Z,23.20
2018-04-12T05:00:17.595Z,23.05
2018-04-12T05:00:51.084Z,22.20
2018-04-12T05:01:25.397Z,22.05
2018-04-12T05:01:59.035Z,22.20
2018-04-12T05:02:32.547Z,21.95
2018-04-12T05:03:06.048Z,22.05
2018-04-12T05:03:40.545Z,21.45
2018-04-12T05:04:14.293Z,22.85
2018-04-12T05:04:48.023Z,22.13
2018-04-12T05:05:21.534Z,22.98
2018-04-12T05:05:55.801Z,22.35
2018-04-12T05:06:29.293Z,21.35
2018-04-12T05:07:03.041Z,21.48
2018-04-12T05:07:36.544Z,21.37
2018-04-12T05:08:10.051Z,22.15
2018-04-12T05:08:43.618Z,21.30
2018-04-12T05:09:17.153Z,20.75
2018-04-12T05:09:51.639Z,21.77
2018-04-12T05:10:25.155Z,20.60
2018-04-12T05:10:59.641Z,20.95
2018-04-12T05:11:33.357Z,20.48
2018-04-12T05:12:07.846Z,20.92
2018-04-12T05:12:41.586Z,21.45
2018-04-12T05:13:15.337Z,20.70
2018-04-12T05:13:49.835Z,20.30
2018-04-12T05:14:23.560Z,21.37
2018-04-12T05:14:57.281Z,19.85
2018-04-12T05:15:31.014Z,20.08
2018-04-12T05:16:04.929Z,19.80
2018-04-12T05:16:39.423Z,20.37
2018-04-12T05:17:13.949Z,21.12
2018-04-12T05:17:47.697Z,21.10
2018-04-12T05:18:21.431Z,20.70
2018-04-12T05:18:55.173Z,18.85
2018-04-12T05:19:28.911Z,20.50
2018-04-12T05:20:03.780Z,20.35
2018-04-12T05:20:37.501Z,20.45
2018-04-12T05:21:12.009Z,20.83
2018-04-12T05:21:46.291Z,19.73
2018-04-12T05:22:19.801Z,20.10
2018-04-12T05:22:54.073Z,20.55
2018-04-12T05:23:27.575Z,19.70
2018-04-12T05:24:01.335Z,19.35
2018-04-12T05:24:35.058Z,20.00
2018-04-12T05:25:08.793Z,19.95
2018-04-12T05:25:42.315Z,18.60
2018-04-12T05:26:15.811Z,21.65
2018-04-12T05:26:49.564Z,18.60
2018-04-12T05:27:23.291Z,19.25
2018-04-12T05:27:57.799Z,18.87
2018-04-12T05:28:31.521Z,19.55
2018-04-12T05:29:05.801Z,18.58
2018-04-12T05:29:38.965Z,19.42
2018-04-12T05:30:12.479Z,18.80
2018-04-12T05:30:46.973Z,19.60
2018-04-12T05:31:20.907Z,18.60
2018-04-12T05:31:54.636Z,18.65
2018-04-12T05:32:28.373Z,18.73
2018-04-12T05:33:02.871Z,18.80
2018-04-12T05:33:36.597Z,18.15
2018-04-12T05:34:10.122Z,18.35
2018-04-12T05:34:43.641Z,18.67
2018-04-12T05:35:18.133Z,19.05
2018-04-12T05:35:51.859Z,18.48
2018-04-12T05:36:25.585Z,18.48
2018-04-12T05:36:59.329Z,18.12
2018-04-12T05:37:33.505Z,19.17
2018-04-12T05:38:07.237Z,18.52
2018-04-12T05:38:40.983Z,17.65
2018-04-12T05:39:14.763Z,18.12
2018-04-12T05:39:48.499Z,19.10
2018-04-12T05:40:23.010Z,18.40
2018-04-12T05:40:58.668Z,18.35
2018-04-12T05:41:32.565Z,18.20
2018-04-12T05:42:05.616Z,16.67
2018-04-12T05:42:40.122Z,17.45
2018-04-12T05:43:14.643Z,17.80
2018-04-12T05:43:49.149Z,16.40
2018-04-12T05:44:22.979Z,17.12
2018-04-12T05:44:56.720Z,17.70
2018-04-12T05:45:31.205Z,18.23
2018-04-12T05:46:04.591Z,17.70
2018-04-12T05:46:38.317Z,16.90
2018-04-12T05:47:12.831Z,18.25
2018-04-12T05:47:46.575Z,16.90
2018-04-12T05:48:20.295Z,16.62
2018-04-12T05:48:54.779Z,18.45
2018-04-12T05:49:28.528Z,17.33
2018-04-12T05:50:02.250Z,18.75
2018-04-12T05:50:35.993Z,17.20
2018-04-12T05:51:09.707Z,17.73
2018-04-12T05:51:43.435Z,18.55
2018-04-12T05:52:17.173Z,16.73
2018-04-12T05:52:50.971Z,16.15
2018-04-12T05:53:24.865Z,17.05
2018-04-12T05:53:58.587Z,17.42
2018-04-12T05:54:32.341Z,19.58
2018-04-12T05:55:06.097Z,17.70
2018-04-12T05:55:39.825Z,19.08
2018-04-12T05:56:13.549Z,17.65
2018-04-12T05:56:47.272Z,17.17
2018-04-12T05:57:20.996Z,18.50
2018-04-12T05:57:54.735Z,17.17
2018-04-12T05:58:28.471Z,15.57
2018-04-12T05:59:02.214Z,17.30
2018-04-12T05:59:35.962Z,17.55
2018-04-12T06:00:09.430Z,17.15
2018-04-12T06:00:43.170Z,17.50
2018-04-12T06:01:16.914Z,16.67
2018-04-12T06:01:51.408Z,17.80
2018-04-12T06:02:25.894Z,15.60
2018-04-12T06:02:59.622Z,16.52
2018-04-12T06:03:33.376Z,17.95
2018-04-12T06:04:07.131Z,16.42
2018-04-12T06:04:40.874Z,17.12
2018-04-12T06:05:14.602Z,17.33
2018-04-12T06:05:48.341Z,15.13
2018-04-12T06:06:22.156Z,16.52
2018-04-12T06:06:56.654Z,15.40
2018-04-12T06:07:30.380Z,16.25
2018-04-12T06:08:03.777Z,15.45
2018-04-12T06:08:37.493Z,16.60
2018-04-12T06:09:11.229Z,18.77
2018-04-12T06:09:45.733Z,17.20
2018-04-12T06:10:20.223Z,17.83
2018-04-12T06:10:53.959Z,17.00
2018-04-12T06:11:27.687Z,16.67
2018-04-12T06:12:01.423Z,16.73
2018-04-12T06:12:35.909Z,16.87
2018-04-12T06:13:09.642Z,16.58
2018-04-12T06:13:43.816Z,17.87
2018-04-12T06:14:18.308Z,17.33
2018-04-12T06:14:52.071Z,17.15
2018-04-12T06:15:25.794Z,17.65
2018-04-12T06:15:59.216Z,16.17
2018-04-12T06:16:32.960Z,18.17
2018-04-12T06:17:06.367Z,16.65
2018-04-12T06:17:40.852Z,16.02
2018-04-12T06:18:14.578Z,17.02
2018-04-12T06:18:49.078Z,16.62
2018-04-12T06:19:23.594Z,16.77
2018-04-12T06:19:58.124Z,17.25
2018-04-12T06:20:31.848Z,16.40
2018-04-12T06:21:05.566Z,16.33
2018-04-12T06:21:39.308Z,16.40
2018-04-12T06:22:13.054Z,16.25
2018-04-12T06:22:47.554Z,16.77
2018-04-12T06:23:21.046Z,17.70
2018-04-12T06:23:55.544Z,21.37
2018-04-12T06:24:29.274Z,20.85
2018-04-12T06:25:03.328Z,17.30
2018-04-12T06:25:37.102Z,16.62
2018-04-12T06:26:10.822Z,17.60
2018-04-12T06:26:44.544Z,15.52
2018-04-12T06:27:18.274Z,16.55
2018-04-12T06:27:52.014Z,16.83
2018-04-12T06:28:25.791Z,18.80
2018-04-12T06:28:59.728Z,19.08
2018-04-12T06:29:33.669Z,17.25
2018-04-12T06:30:08.186Z,17.02
2018-04-12T06:30:41.943Z,16.48
2018-04-12T06:31:15.684Z,16.30
2018-04-12T06:31:49.854Z,20.98
2018-04-12T06:32:23.596Z,17.58
2018-04-12T06:32:57.453Z,16.87
2018-04-12T06:33:31.178Z,18.10
2018-04-12T06:34:04.928Z,17.50
2018-04-12T06:34:38.662Z,18.20
2018-04-12T06:35:12.437Z,18.62
2018-04-12T06:35:46.937Z,16.85
2018-04-12T06:36:21.602Z,16.75
2018-04-12T06:36:55.336Z,18.35
2018-04-12T06:37:29.854Z,18.00
2018-04-12T06:38:04.386Z,17.62
2018-04-12T06:38:38.112Z,18.62
2018-04-12T06:39:11.874Z,19.23
2018-04-12T06:39:45.650Z,18.27
2018-04-12T06:40:19.260Z,18.27
2018-04-12T06:40:52.996Z,18.60
2018-04-12T06:41:26.765Z,18.65
2018-04-12T06:42:00.521Z,18.27
2018-04-12T06:42:34.262Z,18.40
2018-04-12T06:43:07.994Z,18.35
2018-04-12T06:43:42.522Z,19.20
2018-04-12T06:44:16.281Z,17.83
2018-04-12T06:44:50.564Z,18.08
2018-04-12T06:45:25.592Z,17.58
2018-04-12T06:45:59.336Z,18.35
2018-04-12T06:46:33.077Z,17.90
2018-04-12T06:47:06.905Z,18.05
2018-04-12T06:47:40.649Z,19.10
2018-04-12T06:48:14.375Z,18.62
2018-04-12T06:48:48.877Z,17.87
2018-04-12T06:49:23.375Z,18.77
2018-04-12T06:49:57.131Z,17.83
2018-04-12T06:50:30.630Z,17.30
2018-04-12T06:51:04.679Z,16.92
2018-04-12T06:51:38.413Z,16.92
2018-04-12T06:52:11.945Z,19.08
2018-04-12T06:52:46.430Z,18.77
2018-04-12T06:53:20.163Z,16.50
2018-04-12T06:53:53.915Z,17.50
2018-04-12T06:54:27.675Z,17.20
2018-04-12T06:55:01.502Z,17.87
2018-04-12T06:55:35.679Z,18.73
2018-04-12T06:56:09.414Z,18.30
2018-04-12T06:56:43.904Z,18.55
2018-04-12T06:57:17.624Z,18.15
2018-04-12T06:57:51.386Z,19.15
2018-04-12T06:58:25.872Z,17.17
2018-04-12T06:58:59.602Z,17.05
2018-04-12T06:59:33.795Z,18.52
2018-04-12T07:00:07.755Z,18.60
2018-04-12T07:00:41.495Z,18.15
2018-04-12T07:01:15.218Z,19.23
2018-04-12T07:01:48.950Z,18.15
2018-04-12T07:02:22.704Z,19.27
2018-04-12T07:02:56.422Z,18.15
2018-04-12T07:03:30.146Z,18.00
2018-04-12T07:04:04.310Z,18.58
2018-04-12T07:04:40.230Z,17.62
2018-04-12T07:05:13.993Z,17.67
2018-04-12T07:05:47.775Z,17.60
2018-04-12T07:06:21.521Z,18.12
2018-04-12T07:06:55.245Z,17.15
2018-04-12T07:07:29.729Z,18.52
2018-04-12T07:08:03.469Z,18.45
2018-04-12T07:08:37.203Z,17.83
2018-04-12T07:09:10.940Z,17.67
2018-04-12T07:09:44.676Z,17.67
2018-04-12T07:10:18.461Z,17.70
2018-04-12T07:10:52.182Z,17.90
2018-04-12T07:11:25.908Z,17.55
2018-04-12T07:11:59.373Z,17.07
2018-04-12T07:12:33.863Z,17.08
2018-04-12T07:13:07.605Z,17.80
2018-04-12T07:13:41.134Z,17.95
2018-04-12T07:14:14.891Z,18.52
2018-04-12T07:14:48.621Z,17.70
2018-04-12T07:15:22.399Z,19.70
2018-04-12T07:15:56.135Z,17.77
2018-04-12T07:16:30.617Z,18.20
2018-04-12T07:17:04.349Z,17.52
2018-04-12T07:17:38.120Z,19.27
2018-04-12T07:18:12.635Z,17.20
2018-04-12T07:18:47.155Z,18.33
2018-04-12T07:19:20.893Z,19.00
2018-04-12T07:19:54.638Z,17.80
2018-04-12T07:20:28.420Z,19.27
2018-04-12T07:21:02.179Z,19.42
2018-04-12T07:21:35.899Z,19.10